sensor_id;sensor_type;location;lat;lon;timestamp;temperature;humidity
15483;DHT22;7843;50.330;7.312;2023-04-15T00:01:00;3.40;99.90
15483;DHT22;7843;50.330;7.312;2023-04-15T00:03:27;3.40;99.90
15483;DHT22;7843;50.330;7.312;2023-04-15T00:05:54;3.40;99.90
15483;DHT22;7843;50.330;7.312;2023-04-15T00:08:20;3.30;99.90
15483;DHT22;7843;50.330;7.312;2023-04-15T00:10:47;3.30;99.90
15483;DHT22;7843;50.330;7.312;2023-04-15T00:13:14;3.30;99.90
15483;DHT22;7843;50.330;7.312;2023-04-15T00:15:42;3.20;99.90
15483;DHT22;7843;50.330;7.312;2023-04-15T00:18:08;3.20;99.90
15483;DHT22;7843;50.330;7.312;2023-04-15T00:20:35;3.10;99.90
15483;DHT22;7843;50.330;7.312;2023-04-15T00:23:02;3.10;99.90
15483;DHT22;7843;50.330;7.312;2023-04-15T00:25:29;3.10;99.90
15483;DHT22;7843;50.330;7.312;2023-04-15T00:27:56;3.10;99.90
15483;DHT22;7843;50.330;7.312;2023-04-15T00:30:22;3.10;99.90
15483;DHT22;7843;50.330;7.312;2023-04-15T00:32:49;3.00;99.90
15483;DHT22;7843;50.330;7.312;2023-04-15T00:35:16;3.00;99.90
15483;DHT22;7843;50.330;7.312;2023-04-15T00:37:42;3.00;99.90
15483;DHT22;7843;50.330;7.312;2023-04-15T00:40:12;3.00;99.90
15483;DHT22;7843;50.330;7.312;2023-04-15T00:42:39;2.90;99.90
15483;DHT22;7843;50.330;7.312;2023-04-15T00:45:06;2.90;99.90
15483;DHT22;7843;50.330;7.312;2023-04-15T00:47:34;2.90;99.90
15483;DHT22;7843;50.330;7.312;2023-04-15T00:50:02;2.90;99.90
15483;DHT22;7843;50.330;7.312;2023-04-15T00:52:30;2.80;99.90
15483;DHT22;7843;50.330;7.312;2023-04-15T00:54:58;2.80;99.90
15483;DHT22;7843;50.330;7.312;2023-04-15T00:57:25;2.80;99.90
15483;DHT22;7843;50.330;7.312;2023-04-15T00:59:52;2.70;99.90
15483;DHT22;7843;50.330;7.312;2023-04-15T01:02:19;2.80;99.90
15483;DHT22;7843;50.330;7.312;2023-04-15T01:04:48;2.70;99.90
15483;DHT22;7843;50.330;7.312;2023-04-15T01:07:15;2.70;99.90
15483;DHT22;7843;50.330;7.312;2023-04-15T01:09:41;2.70;99.90
15483;DHT22;7843;50.330;7.312;2023-04-15T01:12:13;2.70;99.90
15483;DHT22;7843;50.330;7.312;2023-04-15T01:14:41;2.60;99.90
15483;DHT22;7843;50.330;7.312;2023-04-15T01:17:07;2.60;99.90
15483;DHT22;7843;50.330;7.312;2023-04-15T01:19:37;2.50;99.90
15483;DHT22;7843;50.330;7.312;2023-04-15T01:22:05;2.50;99.90
15483;DHT22;7843;50.330;7.312;2023-04-15T01:24:32;2.50;99.90
15483;DHT22;7843;50.330;7.312;2023-04-15T01:26:59;2.50;99.90
15483;DHT22;7843;50.330;7.312;2023-04-15T01:29:26;2.40;99.90
15483;DHT22;7843;50.330;7.312;2023-04-15T01:31:54;2.40;99.90
15483;DHT22;7843;50.330;7.312;2023-04-15T01:34:22;2.40;99.90
15483;DHT22;7843;50.330;7.312;2023-04-15T01:36:49;2.40;99.90
15483;DHT22;7843;50.330;7.312;2023-04-15T01:39:15;2.30;99.90
15483;DHT22;7843;50.330;7.312;2023-04-15T01:41:42;2.30;99.90
15483;DHT22;7843;50.330;7.312;2023-04-15T01:44:09;2.20;99.90
15483;DHT22;7843;50.330;7.312;2023-04-15T01:46:36;2.20;99.90
15483;DHT22;7843;50.330;7.312;2023-04-15T01:49:03;2.20;99.90
15483;DHT22;7843;50.330;7.312;2023-04-15T01:51:30;2.20;99.90
15483;DHT22;7843;50.330;7.312;2023-04-15T01:53:57;2.10;99.90
15483;DHT22;7843;50.330;7.312;2023-04-15T01:56:24;2.10;99.90
15483;DHT22;7843;50.330;7.312;2023-04-15T01:58:51;2.10;99.90
15483;DHT22;7843;50.330;7.312;2023-04-15T02:01:17;2.10;99.90
15483;DHT22;7843;50.330;7.312;2023-04-15T02:03:47;2.00;99.90
15483;DHT22;7843;50.330;7.312;2023-04-15T02:06:14;2.00;99.90
15483;DHT22;7843;50.330;7.312;2023-04-15T02:08:41;2.00;99.90
15483;DHT22;7843;50.330;7.312;2023-04-15T02:11:07;2.00;99.90
15483;DHT22;7843;50.330;7.312;2023-04-15T02:13:34;1.90;99.90
15483;DHT22;7843;50.330;7.312;2023-04-15T02:16:02;1.90;99.90
15483;DHT22;7843;50.330;7.312;2023-04-15T02:18:29;1.90;99.90
15483;DHT22;7843;50.330;7.312;2023-04-15T02:20:56;1.90;99.90
15483;DHT22;7843;50.330;7.312;2023-04-15T02:23:24;1.80;99.90
15483;DHT22;7843;50.330;7.312;2023-04-15T02:25:50;1.90;99.90
15483;DHT22;7843;50.330;7.312;2023-04-15T02:28:17;1.80;99.90
15483;DHT22;7843;50.330;7.312;2023-04-15T02:30:47;1.80;99.90
15483;DHT22;7843;50.330;7.312;2023-04-15T02:33:14;1.80;99.90
15483;DHT22;7843;50.330;7.312;2023-04-15T02:35:40;1.80;99.90
15483;DHT22;7843;50.330;7.312;2023-04-15T02:38:10;1.80;99.90
15483;DHT22;7843;50.330;7.312;2023-04-15T02:40:36;1.80;99.90
15483;DHT22;7843;50.330;7.312;2023-04-15T02:43:03;1.90;99.90
15483;DHT22;7843;50.330;7.312;2023-04-15T02:45:32;1.90;99.90
15483;DHT22;7843;50.330;7.312;2023-04-15T02:47:59;1.80;99.90
15483;DHT22;7843;50.330;7.312;2023-04-15T02:50:29;1.80;99.90
15483;DHT22;7843;50.330;7.312;2023-04-15T02:52:57;1.80;99.90
15483;DHT22;7843;50.330;7.312;2023-04-15T02:55:23;1.80;99.90
15483;DHT22;7843;50.330;7.312;2023-04-15T02:57:50;1.70;99.90
15483;DHT22;7843;50.330;7.312;2023-04-15T03:00:17;1.70;99.90
15483;DHT22;7843;50.330;7.312;2023-04-15T03:02:45;1.60;99.90
15483;DHT22;7843;50.330;7.312;2023-04-15T03:05:13;1.60;99.90
15483;DHT22;7843;50.330;7.312;2023-04-15T03:07:40;1.60;99.90
15483;DHT22;7843;50.330;7.312;2023-04-15T03:10:07;1.60;99.90
15483;DHT22;7843;50.330;7.312;2023-04-15T03:12:34;1.60;99.90
15483;DHT22;7843;50.330;7.312;2023-04-15T03:15:01;1.60;99.90
15483;DHT22;7843;50.330;7.312;2023-04-15T03:17:27;1.60;99.90
15483;DHT22;7843;50.330;7.312;2023-04-15T03:19:54;1.60;99.90
15483;DHT22;7843;50.330;7.312;2023-04-15T03:22:21;1.60;99.90
15483;DHT22;7843;50.330;7.312;2023-04-15T03:24:47;1.60;99.90
15483;DHT22;7843;50.330;7.312;2023-04-15T03:27:14;1.50;99.90
15483;DHT22;7843;50.330;7.312;2023-04-15T03:29:41;1.60;99.90
15483;DHT22;7843;50.330;7.312;2023-04-15T03:32:08;1.60;99.90
15483;DHT22;7843;50.330;7.312;2023-04-15T03:34:34;1.60;99.90
15483;DHT22;7843;50.330;7.312;2023-04-15T03:37:01;1.60;99.90
15483;DHT22;7843;50.330;7.312;2023-04-15T03:39:28;1.60;99.90
15483;DHT22;7843;50.330;7.312;2023-04-15T03:41:54;1.60;99.90
15483;DHT22;7843;50.330;7.312;2023-04-15T03:44:21;1.60;99.90
15483;DHT22;7843;50.330;7.312;2023-04-15T03:46:48;1.50;99.90
15483;DHT22;7843;50.330;7.312;2023-04-15T03:49:15;1.60;99.90
15483;DHT22;7843;50.330;7.312;2023-04-15T03:51:42;1.60;99.90
15483;DHT22;7843;50.330;7.312;2023-04-15T03:54:08;1.60;99.90
15483;DHT22;7843;50.330;7.312;2023-04-15T03:56:35;1.50;99.90
15483;DHT22;7843;50.330;7.312;2023-04-15T03:59:02;1.50;99.90
15483;DHT22;7843;50.330;7.312;2023-04-15T04:01:28;1.40;99.90
15483;DHT22;7843;50.330;7.312;2023-04-15T04:03:55;1.40;99.90
15483;DHT22;7843;50.330;7.312;2023-04-15T04:06:22;1.40;99.90
15483;DHT22;7843;50.330;7.312;2023-04-15T04:08:48;1.40;99.90
15483;DHT22;7843;50.330;7.312;2023-04-15T04:11:15;1.40;99.90
15483;DHT22;7843;50.330;7.312;2023-04-15T04:13:42;1.40;99.90
15483;DHT22;7843;50.330;7.312;2023-04-15T04:16:09;1.30;99.90
15483;DHT22;7843;50.330;7.312;2023-04-15T04:18:36;1.30;99.90
15483;DHT22;7843;50.330;7.312;2023-04-15T04:21:03;1.30;99.90
15483;DHT22;7843;50.330;7.312;2023-04-15T04:23:29;1.30;99.90
15483;DHT22;7843;50.330;7.312;2023-04-15T04:25:56;1.30;99.90
15483;DHT22;7843;50.330;7.312;2023-04-15T04:28:25;1.30;99.90
15483;DHT22;7843;50.330;7.312;2023-04-15T04:30:52;1.40;99.90
15483;DHT22;7843;50.330;7.312;2023-04-15T04:33:19;1.40;99.90
15483;DHT22;7843;50.330;7.312;2023-04-15T04:35:46;1.50;99.90
15483;DHT22;7843;50.330;7.312;2023-04-15T04:38:12;1.40;99.90
15483;DHT22;7843;50.330;7.312;2023-04-15T04:40:39;1.40;99.90
15483;DHT22;7843;50.330;7.312;2023-04-15T04:43:06;1.30;99.90
15483;DHT22;7843;50.330;7.312;2023-04-15T04:45:33;1.30;99.90
15483;DHT22;7843;50.330;7.312;2023-04-15T04:47:59;1.20;99.90
15483;DHT22;7843;50.330;7.312;2023-04-15T04:50:26;1.30;99.90
15483;DHT22;7843;50.330;7.312;2023-04-15T04:52:53;1.20;99.90
15483;DHT22;7843;50.330;7.312;2023-04-15T04:55:20;1.30;99.90
15483;DHT22;7843;50.330;7.312;2023-04-15T04:57:46;1.40;99.90
15483;DHT22;7843;50.330;7.312;2023-04-15T05:00:13;1.30;99.90
15483;DHT22;7843;50.330;7.312;2023-04-15T05:02:40;1.30;99.90
15483;DHT22;7843;50.330;7.312;2023-04-15T05:05:09;1.30;99.90
15483;DHT22;7843;50.330;7.312;2023-04-15T05:07:37;1.30;99.90
15483;DHT22;7843;50.330;7.312;2023-04-15T05:10:05;1.40;99.90
15483;DHT22;7843;50.330;7.312;2023-04-15T05:12:32;1.30;99.90
15483;DHT22;7843;50.330;7.312;2023-04-15T05:14:59;1.40;99.90
15483;DHT22;7843;50.330;7.312;2023-04-15T05:17:25;1.40;99.90
15483;DHT22;7843;50.330;7.312;2023-04-15T05:19:52;1.40;99.90
15483;DHT22;7843;50.330;7.312;2023-04-15T05:22:19;1.50;99.90
15483;DHT22;7843;50.330;7.312;2023-04-15T05:24:46;1.60;99.90
15483;DHT22;7843;50.330;7.312;2023-04-15T05:27:12;1.70;99.90
15483;DHT22;7843;50.330;7.312;2023-04-15T05:29:39;1.80;99.90
15483;DHT22;7843;50.330;7.312;2023-04-15T05:32:06;1.90;99.90
15483;DHT22;7843;50.330;7.312;2023-04-15T05:34:32;2.00;99.90
15483;DHT22;7843;50.330;7.312;2023-04-15T05:36:59;2.10;99.90
15483;DHT22;7843;50.330;7.312;2023-04-15T05:39:26;2.20;99.90
15483;DHT22;7843;50.330;7.312;2023-04-15T05:41:52;2.40;99.90
15483;DHT22;7843;50.330;7.312;2023-04-15T05:44:19;2.50;99.90
15483;DHT22;7843;50.330;7.312;2023-04-15T05:46:46;2.60;99.90
15483;DHT22;7843;50.330;7.312;2023-04-15T05:49:13;2.70;99.90
15483;DHT22;7843;50.330;7.312;2023-04-15T05:51:39;2.80;99.90
15483;DHT22;7843;50.330;7.312;2023-04-15T05:54:06;3.00;99.90
15483;DHT22;7843;50.330;7.312;2023-04-15T05:56:33;3.20;99.90
15483;DHT22;7843;50.330;7.312;2023-04-15T05:59:00;3.30;99.90
15483;DHT22;7843;50.330;7.312;2023-04-15T06:01:27;3.40;99.90
15483;DHT22;7843;50.330;7.312;2023-04-15T06:03:53;3.50;99.90
15483;DHT22;7843;50.330;7.312;2023-04-15T06:06:20;3.60;99.90
15483;DHT22;7843;50.330;7.312;2023-04-15T06:08:47;3.80;99.90
15483;DHT22;7843;50.330;7.312;2023-04-15T06:11:14;3.80;99.90
15483;DHT22;7843;50.330;7.312;2023-04-15T06:13:41;3.90;99.90
15483;DHT22;7843;50.330;7.312;2023-04-15T06:16:07;4.10;99.90
15483;DHT22;7843;50.330;7.312;2023-04-15T06:18:34;4.10;99.90
15483;DHT22;7843;50.330;7.312;2023-04-15T06:21:01;4.20;99.90
15483;DHT22;7843;50.330;7.312;2023-04-15T06:23:28;4.20;99.90
15483;DHT22;7843;50.330;7.312;2023-04-15T06:25:54;4.40;99.90
15483;DHT22;7843;50.330;7.312;2023-04-15T06:28:21;4.50;99.90
15483;DHT22;7843;50.330;7.312;2023-04-15T06:30:48;4.60;99.90
15483;DHT22;7843;50.330;7.312;2023-04-15T06:33:14;4.70;99.90
15483;DHT22;7843;50.330;7.312;2023-04-15T06:35:41;4.80;99.90
15483;DHT22;7843;50.330;7.312;2023-04-15T06:38:07;4.90;99.90
15483;DHT22;7843;50.330;7.312;2023-04-15T06:40:34;5.00;99.90
15483;DHT22;7843;50.330;7.312;2023-04-15T06:43:01;5.20;99.80
15483;DHT22;7843;50.330;7.312;2023-04-15T06:45:28;5.40;99.80
15483;DHT22;7843;50.330;7.312;2023-04-15T06:47:54;5.50;99.60
15483;DHT22;7843;50.330;7.312;2023-04-15T06:50:21;5.70;99.30
15483;DHT22;7843;50.330;7.312;2023-04-15T06:52:48;5.80;99.50
15483;DHT22;7843;50.330;7.312;2023-04-15T06:55:14;5.90;99.40
15483;DHT22;7843;50.330;7.312;2023-04-15T06:57:41;6.10;98.90
15483;DHT22;7843;50.330;7.312;2023-04-15T07:00:08;6.20;98.80
15483;DHT22;7843;50.330;7.312;2023-04-15T07:02:37;6.40;98.90
15483;DHT22;7843;50.330;7.312;2023-04-15T07:05:05;6.50;98.60
15483;DHT22;7843;50.330;7.312;2023-04-15T07:07:32;6.60;98.00
15483;DHT22;7843;50.330;7.312;2023-04-15T07:09:59;6.60;97.20
15483;DHT22;7843;50.330;7.312;2023-04-15T07:12:27;6.70;97.00
15483;DHT22;7843;50.330;7.312;2023-04-15T07:14:54;6.80;96.70
15483;DHT22;7843;50.330;7.312;2023-04-15T07:17:20;6.80;96.60
15483;DHT22;7843;50.330;7.312;2023-04-15T07:19:47;6.90;96.00
15483;DHT22;7843;50.330;7.312;2023-04-15T07:22:14;6.90;96.00
15483;DHT22;7843;50.330;7.312;2023-04-15T07:24:41;7.00;95.70
15483;DHT22;7843;50.330;7.312;2023-04-15T07:27:08;7.10;95.20
15483;DHT22;7843;50.330;7.312;2023-04-15T07:29:34;7.00;94.40
15483;DHT22;7843;50.330;7.312;2023-04-15T07:32:01;7.20;94.20
15483;DHT22;7843;50.330;7.312;2023-04-15T07:34:28;7.30;93.80
15483;DHT22;7843;50.330;7.312;2023-04-15T07:36:56;7.40;93.90
15483;DHT22;7843;50.330;7.312;2023-04-15T07:39:23;7.60;93.70
15483;DHT22;7843;50.330;7.312;2023-04-15T07:41:50;7.80;93.30
15483;DHT22;7843;50.330;7.312;2023-04-15T07:44:16;8.00;93.10
15483;DHT22;7843;50.330;7.312;2023-04-15T07:46:43;8.30;91.50
15483;DHT22;7843;50.330;7.312;2023-04-15T07:49:09;8.40;91.20
15483;DHT22;7843;50.330;7.312;2023-04-15T07:51:36;8.60;90.90
15483;DHT22;7843;50.330;7.312;2023-04-15T07:54:03;8.80;91.60
15483;DHT22;7843;50.330;7.312;2023-04-15T07:56:30;9.00;90.10
15483;DHT22;7843;50.330;7.312;2023-04-15T07:58:58;9.20;89.30
15483;DHT22;7843;50.330;7.312;2023-04-15T08:01:24;9.20;89.30
15483;DHT22;7843;50.330;7.312;2023-04-15T08:03:51;9.30;90.00
15483;DHT22;7843;50.330;7.312;2023-04-15T08:06:18;9.30;90.10
15483;DHT22;7843;50.330;7.312;2023-04-15T08:08:45;9.40;90.40
15483;DHT22;7843;50.330;7.312;2023-04-15T08:11:12;9.40;90.30
15483;DHT22;7843;50.330;7.312;2023-04-15T08:13:39;9.50;89.20
15483;DHT22;7843;50.330;7.312;2023-04-15T08:18:48;9.60;88.50
15483;DHT22;7843;50.330;7.312;2023-04-15T08:21:17;9.70;89.30
15483;DHT22;7843;50.330;7.312;2023-04-15T08:23:45;9.90;89.50
15483;DHT22;7843;50.330;7.312;2023-04-15T08:26:12;10.10;89.70
15483;DHT22;7843;50.330;7.312;2023-04-15T08:28:41;10.20;88.90
15483;DHT22;7843;50.330;7.312;2023-04-15T08:31:08;10.40;89.90
15483;DHT22;7843;50.330;7.312;2023-04-15T08:33:35;10.60;89.40
15483;DHT22;7843;50.330;7.312;2023-04-15T08:36:02;10.90;87.90
15483;DHT22;7843;50.330;7.312;2023-04-15T08:38:29;11.00;87.40
15483;DHT22;7843;50.330;7.312;2023-04-15T08:40:57;11.20;87.00
15483;DHT22;7843;50.330;7.312;2023-04-15T08:43:34;11.40;86.80
15483;DHT22;7843;50.330;7.312;2023-04-15T08:46:05;11.70;85.90
15483;DHT22;7843;50.330;7.312;2023-04-15T08:48:33;11.70;84.70
15483;DHT22;7843;50.330;7.312;2023-04-15T08:51:01;11.80;86.30
15483;DHT22;7843;50.330;7.312;2023-04-15T08:53:28;11.80;83.90
15483;DHT22;7843;50.330;7.312;2023-04-15T08:55:57;12.00;84.40
15483;DHT22;7843;50.330;7.312;2023-04-15T08:58:25;12.00;83.00
15483;DHT22;7843;50.330;7.312;2023-04-15T09:00:52;12.10;82.50
15483;DHT22;7843;50.330;7.312;2023-04-15T09:03:19;12.10;81.50
15483;DHT22;7843;50.330;7.312;2023-04-15T09:05:47;12.20;81.50
15483;DHT22;7843;50.330;7.312;2023-04-15T09:08:14;12.20;79.80
15483;DHT22;7843;50.330;7.312;2023-04-15T09:10:41;12.20;80.80
15483;DHT22;7843;50.330;7.312;2023-04-15T09:13:08;12.30;80.70
15483;DHT22;7843;50.330;7.312;2023-04-15T09:15:37;12.40;80.10
15483;DHT22;7843;50.330;7.312;2023-04-15T09:18:05;12.50;81.10
15483;DHT22;7843;50.330;7.312;2023-04-15T09:20:41;12.60;80.70
15483;DHT22;7843;50.330;7.312;2023-04-15T09:23:12;12.70;80.60
15483;DHT22;7843;50.330;7.312;2023-04-15T09:25:40;12.70;79.70
15483;DHT22;7843;50.330;7.312;2023-04-15T09:28:10;12.50;78.70
15483;DHT22;7843;50.330;7.312;2023-04-15T09:30:37;12.40;79.40
15483;DHT22;7843;50.330;7.312;2023-04-15T09:33:03;12.50;79.70
15483;DHT22;7843;50.330;7.312;2023-04-15T09:35:34;12.50;79.80
15483;DHT22;7843;50.330;7.312;2023-04-15T09:38:06;12.40;80.30
15483;DHT22;7843;50.330;7.312;2023-04-15T09:40:36;12.50;80.80
15483;DHT22;7843;50.330;7.312;2023-04-15T09:43:04;12.40;79.30
15483;DHT22;7843;50.330;7.312;2023-04-15T09:45:32;12.50;79.60
15483;DHT22;7843;50.330;7.312;2023-04-15T09:48:17;12.70;78.00
15483;DHT22;7843;50.330;7.312;2023-04-15T09:50:44;12.80;77.60
15483;DHT22;7843;50.330;7.312;2023-04-15T09:53:14;13.00;78.80
15483;DHT22;7843;50.330;7.312;2023-04-15T09:55:49;13.30;77.70
15483;DHT22;7843;50.330;7.312;2023-04-15T09:58:18;13.40;76.90
15483;DHT22;7843;50.330;7.312;2023-04-15T10:00:47;13.50;77.50
15483;DHT22;7843;50.330;7.312;2023-04-15T10:03:29;13.50;75.80
15483;DHT22;7843;50.330;7.312;2023-04-15T10:05:58;13.50;76.70
15483;DHT22;7843;50.330;7.312;2023-04-15T10:08:28;13.50;77.90
15483;DHT22;7843;50.330;7.312;2023-04-15T10:10:55;13.50;75.90
15483;DHT22;7843;50.330;7.312;2023-04-15T10:13:25;13.50;75.50
15483;DHT22;7843;50.330;7.312;2023-04-15T10:16:00;13.40;74.50
15483;DHT22;7843;50.330;7.312;2023-04-15T10:18:33;13.20;75.60
15483;DHT22;7843;50.330;7.312;2023-04-15T10:21:00;13.10;77.50
15483;DHT22;7843;50.330;7.312;2023-04-15T10:23:27;13.20;76.40
15483;DHT22;7843;50.330;7.312;2023-04-15T10:25:54;13.20;76.50
15483;DHT22;7843;50.330;7.312;2023-04-15T10:28:21;13.50;76.30
15483;DHT22;7843;50.330;7.312;2023-04-15T10:30:48;13.60;74.00
15483;DHT22;7843;50.330;7.312;2023-04-15T10:33:21;13.50;75.50
15483;DHT22;7843;50.330;7.312;2023-04-15T10:35:49;13.60;75.40
15483;DHT22;7843;50.330;7.312;2023-04-15T10:38:39;13.70;75.60
15483;DHT22;7843;50.330;7.312;2023-04-15T10:41:25;13.70;74.80
15483;DHT22;7843;50.330;7.312;2023-04-15T10:43:55;13.90;74.10
15483;DHT22;7843;50.330;7.312;2023-04-15T10:51:37;13.80;72.80
15483;DHT22;7843;50.330;7.312;2023-04-15T10:57:05;13.90;73.30
15483;DHT22;7843;50.330;7.312;2023-04-15T10:59:38;14.00;69.20
15483;DHT22;7843;50.330;7.312;2023-04-15T11:02:46;14.00;69.40
15483;DHT22;7843;50.330;7.312;2023-04-15T11:05:14;14.00;69.00
15483;DHT22;7843;50.330;7.312;2023-04-15T11:07:54;14.00;70.70
15483;DHT22;7843;50.330;7.312;2023-04-15T11:12:53;14.40;74.00
15483;DHT22;7843;50.330;7.312;2023-04-15T11:15:28;14.60;72.70
15483;DHT22;7843;50.330;7.312;2023-04-15T11:20:42;15.30;72.30
15483;DHT22;7843;50.330;7.312;2023-04-15T11:23:10;15.50;70.60
15483;DHT22;7843;50.330;7.312;2023-04-15T11:25:37;15.40;67.70
15483;DHT22;7843;50.330;7.312;2023-04-15T11:28:05;15.10;68.50
15483;DHT22;7843;50.330;7.312;2023-04-15T11:30:34;15.20;68.50
15483;DHT22;7843;50.330;7.312;2023-04-15T11:33:04;15.20;68.90
15483;DHT22;7843;50.330;7.312;2023-04-15T11:35:32;15.30;68.10
15483;DHT22;7843;50.330;7.312;2023-04-15T11:38:04;15.30;68.50
15483;DHT22;7843;50.330;7.312;2023-04-15T11:40:31;15.30;68.20
15483;DHT22;7843;50.330;7.312;2023-04-15T11:43:13;15.40;68.60
15483;DHT22;7843;50.330;7.312;2023-04-15T11:48:20;15.30;67.80
15483;DHT22;7843;50.330;7.312;2023-04-15T11:50:54;15.40;68.20
15483;DHT22;7843;50.330;7.312;2023-04-15T11:53:21;15.10;68.50
15483;DHT22;7843;50.330;7.312;2023-04-15T11:55:51;14.90;69.60
15483;DHT22;7843;50.330;7.312;2023-04-15T11:58:23;15.00;68.70
15483;DHT22;7843;50.330;7.312;2023-04-15T12:00:58;15.00;68.50
15483;DHT22;7843;50.330;7.312;2023-04-15T12:03:42;15.00;70.30
15483;DHT22;7843;50.330;7.312;2023-04-15T12:11:29;14.80;69.80
15483;DHT22;7843;50.330;7.312;2023-04-15T12:14:06;14.80;69.40
15483;DHT22;7843;50.330;7.312;2023-04-15T12:16:34;15.40;70.90
15483;DHT22;7843;50.330;7.312;2023-04-15T12:19:08;15.50;69.70
15483;DHT22;7843;50.330;7.312;2023-04-15T12:21:37;15.80;68.80
15483;DHT22;7843;50.330;7.312;2023-04-15T12:24:07;15.80;67.90
15483;DHT22;7843;50.330;7.312;2023-04-15T12:26:35;15.90;68.70
15483;DHT22;7843;50.330;7.312;2023-04-15T12:29:05;16.30;68.60
15483;DHT22;7843;50.330;7.312;2023-04-15T12:31:36;16.70;67.00
15483;DHT22;7843;50.330;7.312;2023-04-15T12:34:06;16.90;66.90
15483;DHT22;7843;50.330;7.312;2023-04-15T12:36:33;17.30;67.00
15483;DHT22;7843;50.330;7.312;2023-04-15T12:39:03;17.90;66.00
15483;DHT22;7843;50.330;7.312;2023-04-15T12:41:33;17.90;66.50
15483;DHT22;7843;50.330;7.312;2023-04-15T12:44:00;17.20;67.10
15483;DHT22;7843;50.330;7.312;2023-04-15T12:46:27;16.90;67.60
15483;DHT22;7843;50.330;7.312;2023-04-15T12:48:53;16.40;68.80
15483;DHT22;7843;50.330;7.312;2023-04-15T12:51:20;16.00;69.40
15483;DHT22;7843;50.330;7.312;2023-04-15T12:53:47;15.80;71.10
15483;DHT22;7843;50.330;7.312;2023-04-15T12:56:16;15.50;72.10
15483;DHT22;7843;50.330;7.312;2023-04-15T12:58:43;15.10;72.90
15483;DHT22;7843;50.330;7.312;2023-04-15T13:01:10;14.60;74.20
15483;DHT22;7843;50.330;7.312;2023-04-15T13:03:37;14.20;74.90
15483;DHT22;7843;50.330;7.312;2023-04-15T13:06:03;13.80;76.30
15483;DHT22;7843;50.330;7.312;2023-04-15T13:08:31;13.60;76.70
15483;DHT22;7843;50.330;7.312;2023-04-15T13:10:58;13.30;77.00
15483;DHT22;7843;50.330;7.312;2023-04-15T13:13:25;13.20;78.90
15483;DHT22;7843;50.330;7.312;2023-04-15T13:15:52;13.10;78.70
15483;DHT22;7843;50.330;7.312;2023-04-15T13:18:19;12.90;78.00
15483;DHT22;7843;50.330;7.312;2023-04-15T13:20:46;12.70;79.30
15483;DHT22;7843;50.330;7.312;2023-04-15T13:23:12;12.60;79.90
15483;DHT22;7843;50.330;7.312;2023-04-15T13:25:40;12.40;81.40
15483;DHT22;7843;50.330;7.312;2023-04-15T13:28:06;12.30;82.60
15483;DHT22;7843;50.330;7.312;2023-04-15T13:30:33;12.00;83.20
15483;DHT22;7843;50.330;7.312;2023-04-15T13:32:59;11.90;84.10
15483;DHT22;7843;50.330;7.312;2023-04-15T13:35:26;11.90;85.00
15483;DHT22;7843;50.330;7.312;2023-04-15T13:37:53;12.10;85.70
15483;DHT22;7843;50.330;7.312;2023-04-15T13:40:20;12.30;86.60
15483;DHT22;7843;50.330;7.312;2023-04-15T13:42:47;12.60;87.10
15483;DHT22;7843;50.330;7.312;2023-04-15T13:45:14;12.90;85.80
15483;DHT22;7843;50.330;7.312;2023-04-15T13:47:41;13.10;84.50
15483;DHT22;7843;50.330;7.312;2023-04-15T13:50:08;13.00;82.80
15483;DHT22;7843;50.330;7.312;2023-04-15T13:52:35;13.10;82.40
15483;DHT22;7843;50.330;7.312;2023-04-15T13:55:05;13.20;83.10
15483;DHT22;7843;50.330;7.312;2023-04-15T13:57:32;13.10;82.00
15483;DHT22;7843;50.330;7.312;2023-04-15T13:59:59;13.20;81.80
15483;DHT22;7843;50.330;7.312;2023-04-15T14:02:26;13.10;82.20
15483;DHT22;7843;50.330;7.312;2023-04-15T14:04:52;13.10;82.90
15483;DHT22;7843;50.330;7.312;2023-04-15T14:07:19;12.90;82.00
15483;DHT22;7843;50.330;7.312;2023-04-15T14:09:46;12.70;82.60
15483;DHT22;7843;50.330;7.312;2023-04-15T14:12:13;12.30;83.90
15483;DHT22;7843;50.330;7.312;2023-04-15T14:14:40;12.30;84.40
15483;DHT22;7843;50.330;7.312;2023-04-15T14:17:07;12.10;84.60
15483;DHT22;7843;50.330;7.312;2023-04-15T14:19:35;12.00;86.20
15483;DHT22;7843;50.330;7.312;2023-04-15T14:22:02;12.00;86.70
15483;DHT22;7843;50.330;7.312;2023-04-15T14:24:29;12.00;86.70
15483;DHT22;7843;50.330;7.312;2023-04-15T14:26:55;11.90;87.10
15483;DHT22;7843;50.330;7.312;2023-04-15T14:29:23;11.80;87.90
15483;DHT22;7843;50.330;7.312;2023-04-15T14:31:49;11.70;88.50
15483;DHT22;7843;50.330;7.312;2023-04-15T14:34:16;11.70;89.00
15483;DHT22;7843;50.330;7.312;2023-04-15T14:36:43;11.60;89.40
15483;DHT22;7843;50.330;7.312;2023-04-15T14:39:10;11.60;89.50
15483;DHT22;7843;50.330;7.312;2023-04-15T14:41:36;11.60;89.70
15483;DHT22;7843;50.330;7.312;2023-04-15T14:44:03;11.50;90.10
15483;DHT22;7843;50.330;7.312;2023-04-15T14:46:30;11.50;90.10
15483;DHT22;7843;50.330;7.312;2023-04-15T14:48:57;11.50;89.40
15483;DHT22;7843;50.330;7.312;2023-04-15T14:51:23;11.50;90.00
15483;DHT22;7843;50.330;7.312;2023-04-15T14:53:50;11.40;89.80
15483;DHT22;7843;50.330;7.312;2023-04-15T14:56:17;11.50;90.40
15483;DHT22;7843;50.330;7.312;2023-04-15T14:58:43;11.60;90.40
15483;DHT22;7843;50.330;7.312;2023-04-15T15:01:10;11.50;90.10
15483;DHT22;7843;50.330;7.312;2023-04-15T15:03:37;11.40;89.80
15483;DHT22;7843;50.330;7.312;2023-04-15T15:06:04;11.40;90.30
15483;DHT22;7843;50.330;7.312;2023-04-15T15:08:31;11.30;90.70
15483;DHT22;7843;50.330;7.312;2023-04-15T15:11:01;11.30;90.40
15483;DHT22;7843;50.330;7.312;2023-04-15T15:13:27;11.10;90.90
15483;DHT22;7843;50.330;7.312;2023-04-15T15:15:54;11.10;91.60
15483;DHT22;7843;50.330;7.312;2023-04-15T15:18:22;10.90;91.20
15483;DHT22;7843;50.330;7.312;2023-04-15T15:20:50;10.90;91.60
15483;DHT22;7843;50.330;7.312;2023-04-15T15:23:17;10.70;92.00
15483;DHT22;7843;50.330;7.312;2023-04-15T15:25:45;10.70;93.10
15483;DHT22;7843;50.330;7.312;2023-04-15T15:28:12;10.70;94.40
15483;DHT22;7843;50.330;7.312;2023-04-15T15:30:39;10.60;93.60
15483;DHT22;7843;50.330;7.312;2023-04-15T15:33:06;10.60;94.60
15483;DHT22;7843;50.330;7.312;2023-04-15T15:35:33;10.50;95.20
15483;DHT22;7843;50.330;7.312;2023-04-15T15:38:00;10.30;95.50
15483;DHT22;7843;50.330;7.312;2023-04-15T15:40:27;10.20;96.00
15483;DHT22;7843;50.330;7.312;2023-04-15T15:42:53;10.20;96.20
15483;DHT22;7843;50.330;7.312;2023-04-15T15:45:20;10.10;96.60
15483;DHT22;7843;50.330;7.312;2023-04-15T15:47:47;10.20;97.00
15483;DHT22;7843;50.330;7.312;2023-04-15T15:50:13;10.30;96.40
15483;DHT22;7843;50.330;7.312;2023-04-15T15:52:40;10.20;96.60
15483;DHT22;7843;50.330;7.312;2023-04-15T15:55:07;10.20;96.80
15483;DHT22;7843;50.330;7.312;2023-04-15T15:57:34;10.10;96.90
15483;DHT22;7843;50.330;7.312;2023-04-15T16:00:01;10.00;97.00
15483;DHT22;7843;50.330;7.312;2023-04-15T16:02:36;9.80;97.50
15483;DHT22;7843;50.330;7.312;2023-04-15T16:05:21;9.70;97.80
15483;DHT22;7843;50.330;7.312;2023-04-15T16:07:48;9.70;97.90
15483;DHT22;7843;50.330;7.312;2023-04-15T16:10:15;9.80;98.10
15483;DHT22;7843;50.330;7.312;2023-04-15T16:12:42;9.70;98.10
15483;DHT22;7843;50.330;7.312;2023-04-15T16:15:11;9.70;98.60
15483;DHT22;7843;50.330;7.312;2023-04-15T16:17:38;9.70;98.90
15483;DHT22;7843;50.330;7.312;2023-04-15T16:20:05;9.80;98.80
15483;DHT22;7843;50.330;7.312;2023-04-15T16:22:33;9.80;98.80